sensor_id;sensor_type;location;lat;lon;timestamp;P1;durP1;ratioP1;P2;durP2;ratioP2
33738;SDS011;20063;51.730;11.110;2023-04-10T00:00:07;34.30;;;20.23;;
33738;SDS011;20063;51.730;11.110;2023-04-10T00:02:33;35.95;;;22.00;;
33738;SDS011;20063;51.730;11.110;2023-04-10T00:05:00;37.05;;;21.45;;
33738;SDS011;20063;51.730;11.110;2023-04-10T00:07:26;38.47;;;23.77;;
33738;SDS011;20063;51.730;11.110;2023-04-10T00:09:51;34.47;;;22.15;;
33738;SDS011;20063;51.730;11.110;2023-04-10T00:12:17;40.13;;;23.50;;
33738;SDS011;20063;51.730;11.110;2023-04-10T00:14:43;37.25;;;23.55;;
33738;SDS011;20063;51.730;11.110;2023-04-10T00:17:09;35.30;;;22.15;;
33738;SDS011;20063;51.730;11.110;2023-04-10T00:19:35;41.65;;;23.88;;
33738;SDS011;20063;51.730;11.110;2023-04-10T00:22:01;41.17;;;25.27;;
33738;SDS011;20063;51.730;11.110;2023-04-10T00:24:26;43.10;;;22.00;;
33738;SDS011;20063;51.730;11.110;2023-04-10T00:26:52;40.90;;;24.27;;
33738;SDS011;20063;51.730;11.110;2023-04-10T00:29:18;38.38;;;25.70;;
33738;SDS011;20063;51.730;11.110;2023-04-10T00:31:43;37.30;;;23.35;;
33738;SDS011;20063;51.730;11.110;2023-04-10T00:34:09;40.50;;;25.33;;
33738;SDS011;20063;51.730;11.110;2023-04-10T00:36:35;43.35;;;25.65;;
33738;SDS011;20063;51.730;11.110;2023-04-10T00:39:01;43.20;;;25.80;;
33738;SDS011;20063;51.730;11.110;2023-04-10T00:41:27;40.58;;;24.13;;
33738;SDS011;20063;51.730;11.110;2023-04-10T00:43:56;42.65;;;25.45;;
33738;SDS011;20063;51.730;11.110;2023-04-10T00:46:22;43.42;;;25.83;;
33738;SDS011;20063;51.730;11.110;2023-04-10T00:48:49;39.13;;;23.80;;
33738;SDS011;20063;51.730;11.110;2023-04-10T00:51:16;38.80;;;23.75;;
33738;SDS011;20063;51.730;11.110;2023-04-10T00:53:47;45.53;;;26.08;;
33738;SDS011;20063;51.730;11.110;2023-04-10T00:56:15;57.90;;;28.88;;
33738;SDS011;20063;51.730;11.110;2023-04-10T00:58:42;42.22;;;26.60;;
33738;SDS011;20063;51.730;11.110;2023-04-10T01:01:07;37.65;;;23.73;;
33738;SDS011;20063;51.730;11.110;2023-04-10T01:03:33;37.88;;;23.48;;
33738;SDS011;20063;51.730;11.110;2023-04-10T01:22:45;37.95;;;23.35;;
33738;SDS011;20063;51.730;11.110;2023-04-10T01:30:47;42.85;;;24.77;;
33738;SDS011;20063;51.730;11.110;2023-04-10T01:33:17;36.22;;;23.88;;
33738;SDS011;20063;51.730;11.110;2023-04-10T01:35:46;40.33;;;24.92;;
33738;SDS011;20063;51.730;11.110;2023-04-10T01:38:16;42.35;;;25.27;;
33738;SDS011;20063;51.730;11.110;2023-04-10T01:40:44;37.88;;;23.08;;
33738;SDS011;20063;51.730;11.110;2023-04-10T01:43:15;42.03;;;25.35;;
33738;SDS011;20063;51.730;11.110;2023-04-10T01:45:42;39.65;;;24.00;;
33738;SDS011;20063;51.730;11.110;2023-04-10T01:48:10;37.00;;;23.30;;
33738;SDS011;20063;51.730;11.110;2023-04-10T01:50:36;34.78;;;20.38;;
33738;SDS011;20063;51.730;11.110;2023-04-10T01:53:04;29.25;;;18.02;;
33738;SDS011;20063;51.730;11.110;2023-04-10T01:55:32;31.65;;;18.50;;
33738;SDS011;20063;51.730;11.110;2023-04-10T01:57:58;29.80;;;17.33;;
33738;SDS011;20063;51.730;11.110;2023-04-10T02:00:25;22.50;;;15.38;;
33738;SDS011;20063;51.730;11.110;2023-04-10T02:02:51;25.65;;;14.88;;
33738;SDS011;20063;51.730;11.110;2023-04-10T02:05:17;21.75;;;14.07;;
33738;SDS011;20063;51.730;11.110;2023-04-10T02:07:45;21.15;;;13.35;;
33738;SDS011;20063;51.730;11.110;2023-04-10T02:10:27;18.60;;;12.73;;
33738;SDS011;20063;51.730;11.110;2023-04-10T02:13:00;20.48;;;13.05;;
33738;SDS011;20063;51.730;11.110;2023-04-10T02:15:30;19.50;;;11.85;;
33738;SDS011;20063;51.730;11.110;2023-04-10T02:17:57;18.88;;;12.27;;
33738;SDS011;20063;51.730;11.110;2023-04-10T02:20:25;18.63;;;12.52;;
33738;SDS011;20063;51.730;11.110;2023-04-10T02:22:51;22.35;;;13.38;;
33738;SDS011;20063;51.730;11.110;2023-04-10T02:25:18;18.60;;;12.20;;
33738;SDS011;20063;51.730;11.110;2023-04-10T02:27:44;17.25;;;12.13;;
33738;SDS011;20063;51.730;11.110;2023-04-10T02:30:09;17.63;;;11.10;;
33738;SDS011;20063;51.730;11.110;2023-04-10T02:32:35;19.65;;;12.27;;
33738;SDS011;20063;51.730;11.110;2023-04-10T02:35:02;22.25;;;13.98;;
33738;SDS011;20063;51.730;11.110;2023-04-10T02:37:28;26.25;;;14.43;;
33738;SDS011;20063;51.730;11.110;2023-04-10T02:39:55;22.50;;;13.55;;
33738;SDS011;20063;51.730;11.110;2023-04-10T02:42:20;19.27;;;12.07;;
33738;SDS011;20063;51.730;11.110;2023-04-10T02:44:46;20.00;;;12.93;;
33738;SDS011;20063;51.730;11.110;2023-04-10T02:47:12;23.20;;;14.50;;
33738;SDS011;20063;51.730;11.110;2023-04-10T02:49:38;20.77;;;15.25;;
33738;SDS011;20063;51.730;11.110;2023-04-10T02:52:03;22.38;;;14.00;;
33738;SDS011;20063;51.730;11.110;2023-04-10T02:54:30;26.02;;;16.05;;
33738;SDS011;20063;51.730;11.110;2023-04-10T02:56:55;27.95;;;16.90;;
33738;SDS011;20063;51.730;11.110;2023-04-10T02:59:22;29.45;;;17.65;;
33738;SDS011;20063;51.730;11.110;2023-04-10T03:01:48;25.90;;;16.55;;
33738;SDS011;20063;51.730;11.110;2023-04-10T03:04:16;28.02;;;17.42;;
33738;SDS011;20063;51.730;11.110;2023-04-10T03:06:42;25.75;;;16.60;;
33738;SDS011;20063;51.730;11.110;2023-04-10T03:09:08;24.15;;;15.35;;
33738;SDS011;20063;51.730;11.110;2023-04-10T03:11:33;29.00;;;17.08;;
33738;SDS011;20063;51.730;11.110;2023-04-10T03:14:00;22.70;;;15.13;;
33738;SDS011;20063;51.730;11.110;2023-04-10T03:16:25;23.17;;;15.25;;
33738;SDS011;20063;51.730;11.110;2023-04-10T03:18:55;24.10;;;14.88;;
33738;SDS011;20063;51.730;11.110;2023-04-10T03:21:20;25.67;;;15.63;;
33738;SDS011;20063;51.730;11.110;2023-04-10T03:23:46;27.63;;;15.10;;
33738;SDS011;20063;51.730;11.110;2023-04-10T03:26:12;22.73;;;14.27;;
33738;SDS011;20063;51.730;11.110;2023-04-10T03:28:37;23.52;;;15.40;;
33738;SDS011;20063;51.730;11.110;2023-04-10T03:31:03;22.65;;;14.60;;
33738;SDS011;20063;51.730;11.110;2023-04-10T03:33:30;24.33;;;14.85;;
33738;SDS011;20063;51.730;11.110;2023-04-10T03:35:56;23.65;;;14.95;;
33738;SDS011;20063;51.730;11.110;2023-04-10T03:38:22;23.05;;;15.05;;
33738;SDS011;20063;51.730;11.110;2023-04-10T03:40:47;25.52;;;14.50;;
33738;SDS011;20063;51.730;11.110;2023-04-10T03:43:13;20.25;;;13.43;;
33738;SDS011;20063;51.730;11.110;2023-04-10T03:45:38;23.67;;;14.43;;
33738;SDS011;20063;51.730;11.110;2023-04-10T03:48:04;21.67;;;14.23;;
33738;SDS011;20063;51.730;11.110;2023-04-10T03:50:30;23.75;;;14.25;;
33738;SDS011;20063;51.730;11.110;2023-04-10T03:52:56;23.77;;;16.13;;
33738;SDS011;20063;51.730;11.110;2023-04-10T03:55:21;20.92;;;13.85;;
33738;SDS011;20063;51.730;11.110;2023-04-10T03:57:47;26.17;;;15.55;;
33738;SDS011;20063;51.730;11.110;2023-04-10T04:00:13;27.00;;;15.18;;
33738;SDS011;20063;51.730;11.110;2023-04-10T04:02:41;27.45;;;16.05;;
33738;SDS011;20063;51.730;11.110;2023-04-10T04:05:06;33.10;;;18.00;;
33738;SDS011;20063;51.730;11.110;2023-04-10T04:07:32;26.77;;;16.02;;
33738;SDS011;20063;51.730;11.110;2023-04-10T04:09:58;24.42;;;16.00;;
33738;SDS011;20063;51.730;11.110;2023-04-10T04:12:32;27.25;;;16.08;;
33738;SDS011;20063;51.730;11.110;2023-04-10T04:14:58;26.40;;;16.35;;
33738;SDS011;20063;51.730;11.110;2023-04-10T04:17:23;29.67;;;16.15;;
33738;SDS011;20063;51.730;11.110;2023-04-10T04:19:49;31.95;;;18.17;;
33738;SDS011;20063;51.730;11.110;2023-04-10T04:22:15;27.10;;;16.65;;
33738;SDS011;20063;51.730;11.110;2023-04-10T04:24:41;33.78;;;18.73;;
33738;SDS011;20063;51.730;11.110;2023-04-10T04:27:06;29.13;;;18.05;;
33738;SDS011;20063;51.730;11.110;2023-04-10T04:29:32;33.05;;;19.45;;
33738;SDS011;20063;51.730;11.110;2023-04-10T04:31:57;28.27;;;17.27;;
33738;SDS011;20063;51.730;11.110;2023-04-10T04:34:23;29.25;;;18.27;;
33738;SDS011;20063;51.730;11.110;2023-04-10T04:36:49;28.83;;;17.98;;
33738;SDS011;20063;51.730;11.110;2023-04-10T04:39:15;29.45;;;18.02;;
33738;SDS011;20063;51.730;11.110;2023-04-10T04:41:40;29.85;;;17.90;;
33738;SDS011;20063;51.730;11.110;2023-04-10T04:44:06;28.92;;;16.92;;
33738;SDS011;20063;51.730;11.110;2023-04-10T04:46:31;27.27;;;16.05;;
33738;SDS011;20063;51.730;11.110;2023-04-10T04:48:57;30.88;;;18.35;;
33738;SDS011;20063;51.730;11.110;2023-04-10T04:51:23;25.83;;;15.75;;
33738;SDS011;20063;51.730;11.110;2023-04-10T04:53:48;22.92;;;14.55;;
33738;SDS011;20063;51.730;11.110;2023-04-10T04:56:14;25.27;;;14.88;;
33738;SDS011;20063;51.730;11.110;2023-04-10T04:58:40;23.42;;;15.10;;
33738;SDS011;20063;51.730;11.110;2023-04-10T05:01:06;22.10;;;13.52;;
33738;SDS011;20063;51.730;11.110;2023-04-10T05:03:32;19.63;;;12.23;;
33738;SDS011;20063;51.730;11.110;2023-04-10T05:05:57;22.25;;;14.30;;
33738;SDS011;20063;51.730;11.110;2023-04-10T05:08:23;19.27;;;12.27;;
33738;SDS011;20063;51.730;11.110;2023-04-10T05:10:49;17.15;;;11.27;;
33738;SDS011;20063;51.730;11.110;2023-04-10T05:13:15;17.63;;;11.93;;
33738;SDS011;20063;51.730;11.110;2023-04-10T05:15:41;18.65;;;11.82;;
33738;SDS011;20063;51.730;11.110;2023-04-10T05:18:08;18.83;;;11.90;;
33738;SDS011;20063;51.730;11.110;2023-04-10T05:20:34;23.98;;;13.10;;
33738;SDS011;20063;51.730;11.110;2023-04-10T05:23:00;19.73;;;12.57;;
33738;SDS011;20063;51.730;11.110;2023-04-10T05:25:26;20.60;;;12.15;;
33738;SDS011;20063;51.730;11.110;2023-04-10T05:27:55;16.98;;;11.00;;
33738;SDS011;20063;51.730;11.110;2023-04-10T05:30:21;18.33;;;11.68;;
33738;SDS011;20063;51.730;11.110;2023-04-10T05:32:46;23.73;;;13.60;;
33738;SDS011;20063;51.730;11.110;2023-04-10T05:35:12;21.20;;;13.00;;
33738;SDS011;20063;51.730;11.110;2023-04-10T05:37:38;20.33;;;12.65;;
33738;SDS011;20063;51.730;11.110;2023-04-10T05:40:03;19.27;;;12.15;;
33738;SDS011;20063;51.730;11.110;2023-04-10T05:42:31;24.77;;;15.50;;
33738;SDS011;20063;51.730;11.110;2023-04-10T05:44:57;25.73;;;16.33;;
33738;SDS011;20063;51.730;11.110;2023-04-10T05:47:22;26.13;;;15.45;;
33738;SDS011;20063;51.730;11.110;2023-04-10T05:49:48;29.52;;;18.10;;
33738;SDS011;20063;51.730;11.110;2023-04-10T05:52:13;25.20;;;16.40;;
33738;SDS011;20063;51.730;11.110;2023-04-10T05:54:39;27.88;;;16.67;;
33738;SDS011;20063;51.730;11.110;2023-04-10T05:57:04;23.77;;;15.43;;
33738;SDS011;20063;51.730;11.110;2023-04-10T05:59:30;26.13;;;17.02;;
33738;SDS011;20063;51.730;11.110;2023-04-10T06:01:58;26.45;;;15.70;;
33738;SDS011;20063;51.730;11.110;2023-04-10T06:04:24;22.52;;;15.23;;
33738;SDS011;20063;51.730;11.110;2023-04-10T06:06:50;20.88;;;13.60;;
33738;SDS011;20063;51.730;11.110;2023-04-10T06:09:16;31.52;;;18.67;;
33738;SDS011;20063;51.730;11.110;2023-04-10T06:11:41;29.73;;;18.80;;
33738;SDS011;20063;51.730;11.110;2023-04-10T06:14:07;30.55;;;18.38;;
33738;SDS011;20063;51.730;11.110;2023-04-10T06:16:33;30.48;;;18.65;;
33738;SDS011;20063;51.730;11.110;2023-04-10T06:18:58;27.98;;;17.23;;
33738;SDS011;20063;51.730;11.110;2023-04-10T06:21:24;30.70;;;18.20;;
33738;SDS011;20063;51.730;11.110;2023-04-10T06:23:50;31.58;;;18.92;;
33738;SDS011;20063;51.730;11.110;2023-04-10T06:26:15;27.35;;;17.83;;
33738;SDS011;20063;51.730;11.110;2023-04-10T06:28:41;27.40;;;16.88;;
33738;SDS011;20063;51.730;11.110;2023-04-10T06:31:07;33.70;;;18.65;;
33738;SDS011;20063;51.730;11.110;2023-04-10T06:33:33;30.98;;;17.95;;
33738;SDS011;20063;51.730;11.110;2023-04-10T06:36:02;30.00;;;17.23;;
33738;SDS011;20063;51.730;11.110;2023-04-10T06:38:28;29.42;;;18.38;;
33738;SDS011;20063;51.730;11.110;2023-04-10T06:40:54;29.25;;;18.95;;
33738;SDS011;20063;51.730;11.110;2023-04-10T06:43:20;31.15;;;19.08;;
33738;SDS011;20063;51.730;11.110;2023-04-10T06:45:45;29.90;;;18.33;;
33738;SDS011;20063;51.730;11.110;2023-04-10T06:48:11;29.05;;;18.58;;
33738;SDS011;20063;51.730;11.110;2023-04-10T06:50:37;36.55;;;21.55;;
33738;SDS011;20063;51.730;11.110;2023-04-10T06:53:02;35.63;;;20.80;;
33738;SDS011;20063;51.730;11.110;2023-04-10T06:55:28;30.85;;;20.65;;
33738;SDS011;20063;51.730;11.110;2023-04-10T06:57:54;35.58;;;20.83;;
33738;SDS011;20063;51.730;11.110;2023-04-10T07:00:21;33.15;;;20.48;;
33738;SDS011;20063;51.730;11.110;2023-04-10T07:02:48;29.75;;;19.73;;
33738;SDS011;20063;51.730;11.110;2023-04-10T07:05:13;36.13;;;20.90;;
33738;SDS011;20063;51.730;11.110;2023-04-10T07:07:40;30.48;;;19.80;;
33738;SDS011;20063;51.730;11.110;2023-04-10T07:10:06;32.83;;;18.92;;
33738;SDS011;20063;51.730;11.110;2023-04-10T07:12:32;36.03;;;20.88;;
33738;SDS011;20063;51.730;11.110;2023-04-10T07:14:58;32.83;;;18.48;;
33738;SDS011;20063;51.730;11.110;2023-04-10T07:17:24;31.08;;;19.80;;
33738;SDS011;20063;51.730;11.110;2023-04-10T07:19:52;30.85;;;19.98;;
33738;SDS011;20063;51.730;11.110;2023-04-10T07:22:18;31.52;;;18.92;;
33738;SDS011;20063;51.730;11.110;2023-04-10T07:24:43;33.80;;;18.38;;
33738;SDS011;20063;51.730;11.110;2023-04-10T07:27:09;29.25;;;18.83;;
33738;SDS011;20063;51.730;11.110;2023-04-10T07:29:36;27.55;;;18.67;;
33738;SDS011;20063;51.730;11.110;2023-04-10T07:32:02;28.50;;;18.75;;
33738;SDS011;20063;51.730;11.110;2023-04-10T07:34:29;32.75;;;18.85;;
33738;SDS011;20063;51.730;11.110;2023-04-10T07:36:55;27.10;;;17.58;;
33738;SDS011;20063;51.730;11.110;2023-04-10T07:39:20;28.67;;;18.65;;
33738;SDS011;20063;51.730;11.110;2023-04-10T07:41:46;29.90;;;18.33;;
33738;SDS011;20063;51.730;11.110;2023-04-10T07:44:11;28.40;;;17.98;;
33738;SDS011;20063;51.730;11.110;2023-04-10T07:46:38;23.65;;;16.20;;
33738;SDS011;20063;51.730;11.110;2023-04-10T07:49:04;24.98;;;16.13;;
33738;SDS011;20063;51.730;11.110;2023-04-10T07:51:30;28.27;;;17.27;;
33738;SDS011;20063;51.730;11.110;2023-04-10T07:53:55;24.42;;;16.33;;
33738;SDS011;20063;51.730;11.110;2023-04-10T07:56:21;24.27;;;16.92;;
33738;SDS011;20063;51.730;11.110;2023-04-10T07:58:47;33.33;;;16.60;;
33738;SDS011;20063;51.730;11.110;2023-04-10T08:01:13;25.80;;;15.60;;
33738;SDS011;20063;51.730;11.110;2023-04-10T08:03:45;25.15;;;16.40;;
33738;SDS011;20063;51.730;11.110;2023-04-10T08:06:11;21.48;;;14.57;;
33738;SDS011;20063;51.730;11.110;2023-04-10T08:08:37;25.63;;;16.13;;
33738;SDS011;20063;51.730;11.110;2023-04-10T08:11:06;20.10;;;14.00;;
33738;SDS011;20063;51.730;11.110;2023-04-10T08:13:56;20.70;;;14.30;;
33738;SDS011;20063;51.730;11.110;2023-04-10T08:16:30;21.77;;;14.70;;
33738;SDS011;20063;51.730;11.110;2023-04-10T08:18:57;23.85;;;15.02;;
33738;SDS011;20063;51.730;11.110;2023-04-10T08:21:27;22.38;;;14.90;;
33738;SDS011;20063;51.730;11.110;2023-04-10T08:23:54;18.13;;;13.80;;
33738;SDS011;20063;51.730;11.110;2023-04-10T08:26:21;19.13;;;13.65;;
33738;SDS011;20063;51.730;11.110;2023-04-10T08:28:48;21.63;;;13.77;;
33738;SDS011;20063;51.730;11.110;2023-04-10T08:31:19;23.73;;;14.63;;
33738;SDS011;20063;51.730;11.110;2023-04-10T08:33:45;21.25;;;14.00;;
33738;SDS011;20063;51.730;11.110;2023-04-10T08:36:11;21.05;;;14.00;;
33738;SDS011;20063;51.730;11.110;2023-04-10T08:38:42;28.08;;;15.57;;
33738;SDS011;20063;51.730;11.110;2023-04-10T08:41:12;26.65;;;15.88;;
33738;SDS011;20063;51.730;11.110;2023-04-10T08:43:39;23.42;;;15.50;;
33738;SDS011;20063;51.730;11.110;2023-04-10T08:46:05;21.67;;;15.02;;
33738;SDS011;20063;51.730;11.110;2023-04-10T08:48:34;23.40;;;15.20;;
33738;SDS011;20063;51.730;11.110;2023-04-10T08:51:08;22.35;;;14.05;;
33738;SDS011;20063;51.730;11.110;2023-04-10T08:53:42;24.80;;;15.55;;
33738;SDS011;20063;51.730;11.110;2023-04-10T08:56:11;22.30;;;14.38;;
33738;SDS011;20063;51.730;11.110;2023-04-10T08:58:40;18.70;;;12.57;;
33738;SDS011;20063;51.730;11.110;2023-04-10T09:01:06;19.27;;;12.45;;
33738;SDS011;20063;51.730;11.110;2023-04-10T09:03:34;21.08;;;13.20;;
33738;SDS011;20063;51.730;11.110;2023-04-10T09:06:02;23.25;;;14.00;;
33738;SDS011;20063;51.730;11.110;2023-04-10T09:08:28;17.58;;;12.65;;
33738;SDS011;20063;51.730;11.110;2023-04-10T09:10:56;17.98;;;13.00;;
33738;SDS011;20063;51.730;11.110;2023-04-10T09:13:35;21.83;;;13.15;;
33738;SDS011;20063;51.730;11.110;2023-04-10T09:16:02;21.60;;;13.77;;
33738;SDS011;20063;51.730;11.110;2023-04-10T09:18:47;21.63;;;14.10;;
33738;SDS011;20063;51.730;11.110;2023-04-10T09:21:16;19.75;;;13.20;;
33738;SDS011;20063;51.730;11.110;2023-04-10T09:23:45;18.65;;;13.77;;
33738;SDS011;20063;51.730;11.110;2023-04-10T09:29:03;17.48;;;12.35;;
33738;SDS011;20063;51.730;11.110;2023-04-10T09:31:32;18.95;;;12.63;;
33738;SDS011;20063;51.730;11.110;2023-04-10T09:36:32;20.25;;;13.48;;
33738;SDS011;20063;51.730;11.110;2023-04-10T09:38:58;21.35;;;12.43;;
33738;SDS011;20063;51.730;11.110;2023-04-10T09:41:24;19.90;;;13.13;;
33738;SDS011;20063;51.730;11.110;2023-04-10T09:43:58;18.73;;;13.55;;
33738;SDS011;20063;51.730;11.110;2023-04-10T09:46:31;21.88;;;14.50;;
33738;SDS011;20063;51.730;11.110;2023-04-10T09:48:56;19.98;;;13.32;;
33738;SDS011;20063;51.730;11.110;2023-04-10T09:51:27;18.30;;;13.55;;
33738;SDS011;20063;51.730;11.110;2023-04-10T09:53:56;22.77;;;13.85;;
33738;SDS011;20063;51.730;11.110;2023-04-10T09:56:21;18.33;;;12.70;;
33738;SDS011;20063;51.730;11.110;2023-04-10T09:58:50;19.92;;;12.57;;
33738;SDS011;20063;51.730;11.110;2023-04-10T10:01:17;18.58;;;11.50;;
33738;SDS011;20063;51.730;11.110;2023-04-10T10:03:44;17.63;;;10.98;;
33738;SDS011;20063;51.730;11.110;2023-04-10T10:06:10;19.30;;;11.90;;
33738;SDS011;20063;51.730;11.110;2023-04-10T10:08:36;18.52;;;10.80;;
33738;SDS011;20063;51.730;11.110;2023-04-10T10:11:02;15.80;;;11.38;;
33738;SDS011;20063;51.730;11.110;2023-04-10T10:13:39;15.82;;;11.23;;
33738;SDS011;20063;51.730;11.110;2023-04-10T10:18:43;16.50;;;9.45;;
33738;SDS011;20063;51.730;11.110;2023-04-10T10:21:13;15.50;;;9.77;;
33738;SDS011;20063;51.730;11.110;2023-04-10T10:23:39;14.85;;;9.23;;
33738;SDS011;20063;51.730;11.110;2023-04-10T10:26:08;14.73;;;10.18;;
33738;SDS011;20063;51.730;11.110;2023-04-10T10:28:34;17.13;;;9.57;;
33738;SDS011;20063;51.730;11.110;2023-04-10T10:31:03;14.38;;;10.05;;
33738;SDS011;20063;51.730;11.110;2023-04-10T10:33:30;13.88;;;9.57;;
33738;SDS011;20063;51.730;11.110;2023-04-10T10:36:00;12.00;;;9.40;;
33738;SDS011;20063;51.730;11.110;2023-04-10T10:38:27;14.93;;;9.43;;
33738;SDS011;20063;51.730;11.110;2023-04-10T10:41:04;16.63;;;10.70;;
33738;SDS011;20063;51.730;11.110;2023-04-10T10:46:11;16.90;;;10.05;;
33738;SDS011;20063;51.730;11.110;2023-04-10T10:49:01;13.98;;;9.57;;
33738;SDS011;20063;51.730;11.110;2023-04-10T10:51:46;15.27;;;10.25;;
33738;SDS011;20063;51.730;11.110;2023-04-10T10:56:54;15.18;;;9.55;;
33738;SDS011;20063;51.730;11.110;2023-04-10T11:02:24;18.33;;;8.98;;
33738;SDS011;20063;51.730;11.110;2023-04-10T11:04:51;16.73;;;10.32;;
33738;SDS011;20063;51.730;11.110;2023-04-10T11:07:17;16.65;;;10.50;;
33738;SDS011;20063;51.730;11.110;2023-04-10T11:12:22;14.13;;;10.93;;
33738;SDS011;20063;51.730;11.110;2023-04-10T11:15:01;15.60;;;10.45;;
33738;SDS011;20063;51.730;11.110;2023-04-10T11:17:49;17.65;;;11.30;;
33738;SDS011;20063;51.730;11.110;2023-04-10T11:20:18;15.98;;;11.05;;
33738;SDS011;20063;51.730;11.110;2023-04-10T11:23:06;17.73;;;11.38;;
33738;SDS011;20063;51.730;11.110;2023-04-10T11:25:45;17.98;;;11.00;;
33738;SDS011;20063;51.730;11.110;2023-04-10T11:31:12;17.60;;;12.05;;
33738;SDS011;20063;51.730;11.110;2023-04-10T11:33:44;19.77;;;12.90;;
33738;SDS011;20063;51.730;11.110;2023-04-10T11:36:12;16.55;;;11.23;;
33738;SDS011;20063;51.730;11.110;2023-04-10T11:38:42;19.95;;;10.68;;
33738;SDS011;20063;51.730;11.110;2023-04-10T11:41:29;15.82;;;11.52;;
33738;SDS011;20063;51.730;11.110;2023-04-10T11:43:59;18.25;;;12.45;;
33738;SDS011;20063;51.730;11.110;2023-04-10T11:46:26;18.48;;;11.63;;
33738;SDS011;20063;51.730;11.110;2023-04-10T11:48:54;16.10;;;10.70;;
33738;SDS011;20063;51.730;11.110;2023-04-10T11:51:22;22.55;;;14.13;;
33738;SDS011;20063;51.730;11.110;2023-04-10T11:53:48;17.67;;;12.38;;
33738;SDS011;20063;51.730;11.110;2023-04-10T11:56:14;18.10;;;12.35;;
33738;SDS011;20063;51.730;11.110;2023-04-10T11:58:41;16.52;;;10.85;;
33738;SDS011;20063;51.730;11.110;2023-04-10T12:01:06;14.02;;;10.82;;
33738;SDS011;20063;51.730;11.110;2023-04-10T12:03:38;15.20;;;9.48;;
33738;SDS011;20063;51.730;11.110;2023-04-10T12:06:07;12.95;;;9.20;;
33738;SDS011;20063;51.730;11.110;2023-04-10T12:08:38;13.93;;;9.80;;
33738;SDS011;20063;51.730;11.110;2023-04-10T12:16:08;15.15;;;9.70;;
33738;SDS011;20063;51.730;11.110;2023-04-10T12:18:34;15.50;;;9.82;;
33738;SDS011;20063;51.730;11.110;2023-04-10T12:21:01;14.73;;;9.27;;
33738;SDS011;20063;51.730;11.110;2023-04-10T12:23:28;10.50;;;7.38;;
33738;SDS011;20063;51.730;11.110;2023-04-10T12:28:38;15.77;;;7.57;;
33738;SDS011;20063;51.730;11.110;2023-04-10T12:31:04;8.75;;;6.43;;
33738;SDS011;20063;51.730;11.110;2023-04-10T12:33:30;10.20;;;7.10;;
33738;SDS011;20063;51.730;11.110;2023-04-10T12:35:56;11.85;;;7.47;;
33738;SDS011;20063;51.730;11.110;2023-04-10T12:41:06;8.90;;;6.38;;
33738;SDS011;20063;51.730;11.110;2023-04-10T12:43:40;9.40;;;6.10;;
33738;SDS011;20063;51.730;11.110;2023-04-10T12:46:08;8.27;;;5.85;;
33738;SDS011;20063;51.730;11.110;2023-04-10T12:48:34;8.18;;;5.72;;
33738;SDS011;20063;51.730;11.110;2023-04-10T12:51:00;8.73;;;6.20;;
33738;SDS011;20063;51.730;11.110;2023-04-10T12:53:26;9.48;;;6.28;;
33738;SDS011;20063;51.730;11.110;2023-04-10T12:58:28;12.02;;;7.18;;
33738;SDS011;20063;51.730;11.110;2023-04-10T13:01:01;10.65;;;6.32;;
33738;SDS011;20063;51.730;11.110;2023-04-10T13:03:28;13.25;;;8.20;;
33738;SDS011;20063;51.730;11.110;2023-04-10T13:05:56;10.75;;;7.32;;
33738;SDS011;20063;51.730;11.110;2023-04-10T13:08:21;8.40;;;6.40;;
33738;SDS011;20063;51.730;11.110;2023-04-10T13:10:47;9.15;;;5.95;;
33738;SDS011;20063;51.730;11.110;2023-04-10T13:13:13;9.05;;;6.30;;
33738;SDS011;20063;51.730;11.110;2023-04-10T13:15:39;10.57;;;6.85;;
33738;SDS011;20063;51.730;11.110;2023-04-10T13:18:05;12.68;;;7.55;;
33738;SDS011;20063;51.730;11.110;2023-04-10T13:20:32;11.00;;;6.63;;
33738;SDS011;20063;51.730;11.110;2023-04-10T13:22:59;11.85;;;7.03;;
33738;SDS011;20063;51.730;11.110;2023-04-10T13:25:26;8.60;;;6.53;;
33738;SDS011;20063;51.730;11.110;2023-04-10T13:27:52;9.45;;;5.55;;
33738;SDS011;20063;51.730;11.110;2023-04-10T13:30:18;13.40;;;6.22;;
33738;SDS011;20063;51.730;11.110;2023-04-10T13:32:43;11.52;;;7.00;;
33738;SDS011;20063;51.730;11.110;2023-04-10T13:35:10;11.38;;;7.43;;
33738;SDS011;20063;51.730;11.110;2023-04-10T13:37:35;9.82;;;7.05;;
33738;SDS011;20063;51.730;11.110;2023-04-10T13:40:04;10.77;;;6.35;;
33738;SDS011;20063;51.730;11.110;2023-04-10T13:42:30;8.73;;;5.95;;
33738;SDS011;20063;51.730;11.110;2023-04-10T13:44:56;8.27;;;5.40;;
33738;SDS011;20063;51.730;11.110;2023-04-10T13:47:22;7.85;;;5.35;;
33738;SDS011;20063;51.730;11.110;2023-04-10T13:49:47;11.38;;;5.97;;
33738;SDS011;20063;51.730;11.110;2023-04-10T13:52:13;7.30;;;4.72;;
33738;SDS011;20063;51.730;11.110;2023-04-10T13:54:38;9.05;;;4.93;;
33738;SDS011;20063;51.730;11.110;2023-04-10T13:57:04;12.00;;;5.38;;
33738;SDS011;20063;51.730;11.110;2023-04-10T13:59:30;7.90;;;5.43;;
33738;SDS011;20063;51.730;11.110;2023-04-10T14:01:55;10.45;;;6.00;;
33738;SDS011;20063;51.730;11.110;2023-04-10T14:04:21;9.20;;;6.43;;
33738;SDS011;20063;51.730;11.110;2023-04-10T14:06:47;12.93;;;6.63;;
33738;SDS011;20063;51.730;11.110;2023-04-10T14:09:14;9.88;;;7.32;;
33738;SDS011;20063;51.730;11.110;2023-04-10T14:11:39;13.57;;;8.82;;
33738;SDS011;20063;51.730;11.110;2023-04-10T14:14:08;11.45;;;7.55;;
33738;SDS011;20063;51.730;11.110;2023-04-10T14:16:34;10.32;;;7.43;;
33738;SDS011;20063;51.730;11.110;2023-04-10T14:18:59;13.52;;;7.47;;
33738;SDS011;20063;51.730;11.110;2023-04-10T14:21:25;10.75;;;8.25;;
33738;SDS011;20063;51.730;11.110;2023-04-10T14:23:51;11.98;;;8.43;;
33738;SDS011;20063;51.730;11.110;2023-04-10T14:26:16;12.65;;;8.63;;
33738;SDS011;20063;51.730;11.110;2023-04-10T14:28:42;13.18;;;7.57;;
33738;SDS011;20063;51.730;11.110;2023-04-10T14:31:38;9.70;;;6.35;;
33738;SDS011;20063;51.730;11.110;2023-04-10T14:34:04;9.43;;;6.50;;
33738;SDS011;20063;51.730;11.110;2023-04-10T14:36:29;9.48;;;6.40;;
33738;SDS011;20063;51.730;11.110;2023-04-10T14:38:56;10.65;;;6.45;;
33738;SDS011;20063;51.730;11.110;2023-04-10T14:41:23;8.02;;;6.22;;
33738;SDS011;20063;51.730;11.110;2023-04-10T14:43:49;8.18;;;6.47;;
33738;SDS011;20063;51.730;11.110;2023-04-10T14:46:15;8.10;;;5.97;;
33738;SDS011;20063;51.730;11.110;2023-04-10T14:48:41;8.65;;;6.82;;
33738;SDS011;20063;51.730;11.110;2023-04-10T14:51:07;7.95;;;5.47;;
33738;SDS011;20063;51.730;11.110;2023-04-10T14:53:38;9.05;;;6.38;;
33738;SDS011;20063;51.730;11.110;2023-04-10T14:56:14;11.48;;;6.22;;
33738;SDS011;20063;51.730;11.110;2023-04-10T14:58:42;6.78;;;5.07;;
33738;SDS011;20063;51.730;11.110;2023-04-10T15:01:09;6.63;;;5.32;;
33738;SDS011;20063;51.730;11.110;2023-04-10T15:03:36;7.93;;;5.63;;
33738;SDS011;20063;51.730;11.110;2023-04-10T15:06:01;8.32;;;5.40;;
33738;SDS011;20063;51.730;11.110;2023-04-10T15:08:27;7.88;;;5.28;;
33738;SDS011;20063;51.730;11.110;2023-04-10T15:10:53;8.10;;;5.85;;